createdAt,value
2022-11-06T00:04:15.632Z,6.30
2022-11-06T00:09:22.372Z,6.30
2022-11-06T00:14:27.182Z,6.30
2022-11-06T00:19:30.458Z,6.30
2022-11-06T00:24:33.754Z,6.30
2022-11-06T00:29:38.437Z,6.20
2022-11-06T00:34:41.703Z,6.20
2022-11-06T00:39:45.252Z,6.20
2022-11-06T00:44:49.904Z,6.20
2022-11-06T00:49:53.217Z,6.30
2022-11-06T00:54:56.486Z,6.30
2022-11-06T01:00:01.145Z,6.30
2022-11-06T01:05:04.714Z,6.20
2022-11-06T01:10:08.944Z,6.30
2022-11-06T01:15:13.731Z,6.40
2022-11-06T01:20:17.100Z,6.40
2022-11-06T01:25:20.383Z,6.30
2022-11-06T01:30:25.075Z,6.20
2022-11-06T01:35:28.335Z,6.20
2022-11-06T01:40:31.668Z,6.20
2022-11-06T01:45:40.915Z,6.10
2022-11-06T01:50:47.553Z,6.10
2022-11-06T01:55:53.488Z,6.00
2022-11-06T02:00:58.208Z,6.00
2022-11-06T02:06:02.445Z,6.00
2022-11-06T02:11:06.014Z,5.90
2022-11-06T02:16:21.631Z,6.00
2022-11-06T02:21:48.680Z,6.00
2022-11-06T02:27:06.011Z,5.80
2022-11-06T02:32:15.367Z,5.80
2022-11-06T02:37:25.259Z,5.90
2022-11-06T02:42:32.911Z,5.90
2022-11-06T02:47:36.804Z,5.90
2022-11-06T02:52:45.400Z,6.00
2022-11-06T02:57:55.899Z,5.80
2022-11-06T03:03:03.297Z,5.90
2022-11-06T03:08:13.084Z,5.80
2022-11-06T03:13:20.994Z,5.80
2022-11-06T03:18:32.121Z,6.00
2022-11-06T03:23:40.144Z,6.10
2022-11-06T03:28:52.795Z,6.10
2022-11-06T03:34:00.937Z,5.90
2022-11-06T03:39:08.004Z,5.90
2022-11-06T03:44:19.169Z,2.30
2022-11-06T03:49:27.317Z,5.90
2022-11-06T03:54:35.683Z,6.00
2022-11-06T03:59:45.915Z,5.90
2022-11-06T04:04:52.145Z,5.80
2022-11-06T04:10:16.387Z,5.80
2022-11-06T04:15:22.709Z,5.90
2022-11-06T04:20:47.347Z,5.90
2022-11-06T04:26:21.785Z,6.00
2022-11-06T04:31:33.279Z,5.90
2022-11-06T04:36:43.645Z,5.90
2022-11-06T04:41:57.480Z,6.00
2022-11-06T04:47:05.289Z,6.00
2022-11-06T04:52:12.657Z,6.20
2022-11-06T04:57:15.927Z,6.10
2022-11-06T05:02:20.662Z,6.00
2022-11-06T05:07:24.008Z,5.90
2022-11-06T05:12:27.295Z,5.90
2022-11-06T05:17:36.355Z,5.90
2022-11-06T05:23:01.533Z,5.80
2022-11-06T05:28:07.226Z,5.80
2022-11-06T05:33:11.936Z,5.40
2022-11-06T05:38:15.458Z,5.30
2022-11-06T05:43:19.043Z,5.00
2022-11-06T05:48:23.833Z,5.20
2022-11-06T05:53:27.125Z,5.20
2022-11-06T05:58:30.647Z,5.20
2022-11-06T06:03:35.439Z,5.20
2022-11-06T06:08:38.731Z,5.10
2022-11-06T06:13:42.067Z,5.00
2022-11-06T06:18:46.758Z,5.10
2022-11-06T06:23:50.332Z,5.10
2022-11-06T06:28:53.605Z,5.30
2022-11-06T06:33:58.263Z,5.30
2022-11-06T06:39:01.578Z,5.10
2022-11-06T06:44:05.103Z,5.30
2022-11-06T06:49:09.960Z,5.40
2022-11-06T06:54:13.213Z,5.30
2022-11-06T06:59:16.623Z,5.00
2022-11-06T07:04:21.528Z,5.10
2022-11-06T07:09:25.015Z,5.00
2022-11-06T07:14:28.316Z,4.90
2022-11-06T07:19:33.207Z,4.80
2022-11-06T07:24:36.756Z,5.00
2022-11-06T07:29:40.020Z,5.00
2022-11-06T07:34:44.672Z,5.10
2022-11-06T07:39:48.589Z,5.10
2022-11-06T07:44:54.363Z,5.30
2022-11-06T07:49:59.056Z,5.40
2022-11-06T07:55:02.384Z,5.60
2022-11-06T08:00:07.488Z,5.70
2022-11-06T08:05:17.250Z,5.80
2022-11-06T08:10:20.534Z,6.10
2022-11-06T08:15:23.799Z,6.10
2022-11-06T08:20:28.459Z,6.50
2022-11-06T08:25:32.704Z,6.80
2022-11-06T08:30:36.164Z,7.10
2022-11-06T08:35:40.882Z,7.30
2022-11-06T08:40:47.101Z,7.50
2022-11-06T08:45:52.694Z,7.60
2022-11-06T08:50:57.399Z,7.40
2022-11-06T08:56:00.884Z,7.70
2022-11-06T09:01:04.210Z,8.20
2022-11-06T09:06:09.668Z,8.40
2022-11-06T09:11:13.145Z,8.50
2022-11-06T09:16:16.571Z,8.40
2022-11-06T09:21:21.292Z,8.50
2022-11-06T09:26:24.703Z,8.60
2022-11-06T09:31:28.185Z,8.80
2022-11-06T09:36:32.917Z,8.80
2022-11-06T09:41:47.253Z,8.00
2022-11-06T09:46:50.799Z,7.60
2022-11-06T09:51:59.445Z,7.60
2022-11-06T09:57:07.512Z,7.70
2022-11-06T10:02:25.280Z,8.20
2022-11-06T10:07:32.626Z,7.80
2022-11-06T10:12:46.756Z,8.10
2022-11-06T10:17:58.681Z,8.10
2022-11-06T10:23:15.273Z,7.80
2022-11-06T10:28:34.487Z,8.10
2022-11-06T10:33:50.360Z,8.00
2022-11-06T10:38:57.385Z,7.90
2022-11-06T10:44:06.401Z,7.80
2022-11-06T10:49:20.299Z,7.50
2022-11-06T10:54:36.671Z,7.60
2022-11-06T10:59:40.180Z,7.70
2022-11-06T11:04:44.153Z,8.10
2022-11-06T11:09:49.756Z,8.40
2022-11-06T11:15:17.224Z,8.60
2022-11-06T11:20:32.089Z,9.00
2022-11-06T11:25:36.885Z,9.20
2022-11-06T11:30:40.394Z,8.90
2022-11-06T11:35:51.608Z,9.10
2022-11-06T11:41:09.002Z,9.10
2022-11-06T11:46:21.973Z,9.30
2022-11-06T11:51:32.365Z,9.30
2022-11-06T11:57:04.067Z,9.70
2022-11-06T12:02:25.404Z,9.70
2022-11-06T12:07:33.135Z,9.60
2022-11-06T12:12:38.408Z,9.30
2022-11-06T12:17:44.103Z,10.00
2022-11-06T12:22:50.579Z,10.00
2022-11-06T12:27:59.334Z,10.30
2022-11-06T12:33:07.549Z,10.40
2022-11-06T12:38:21.868Z,10.40
2022-11-06T12:43:34.944Z,10.60
2022-11-06T12:48:51.618Z,11.10
2022-11-06T12:54:11.190Z,11.90
2022-11-06T12:59:26.676Z,11.70
2022-11-06T13:04:43.143Z,11.30
2022-11-06T13:09:56.060Z,11.10
2022-11-06T13:15:13.976Z,11.40
2022-11-06T13:20:25.143Z,11.70
2022-11-06T13:25:39.717Z,11.50
2022-11-06T13:30:45.388Z,11.40
2022-11-06T13:35:49.093Z,11.60
2022-11-06T13:41:00.668Z,11.70
2022-11-06T13:46:15.662Z,11.90
2022-11-06T13:51:27.066Z,11.60
2022-11-06T13:56:48.228Z,11.30
2022-11-06T14:02:02.099Z,11.50
2022-11-06T14:07:07.425Z,11.70
2022-11-06T14:12:17.591Z,12.50
2022-11-06T14:17:25.256Z,12.70
2022-11-06T14:22:30.773Z,12.70
2022-11-06T14:28:06.120Z,13.00
2022-11-06T14:33:14.119Z,13.10
2022-11-06T14:38:33.957Z,13.00
2022-11-06T14:43:37.763Z,12.90
2022-11-06T14:48:47.152Z,12.80
2022-11-06T14:53:52.695Z,12.60
2022-11-06T14:58:57.691Z,12.20
2022-11-06T15:04:05.788Z,11.40
2022-11-06T15:09:13.941Z,11.00
2022-11-06T15:14:55.345Z,10.50
2022-11-06T15:20:09.487Z,10.10
2022-11-06T15:25:21.927Z,9.80
2022-11-06T15:30:25.964Z,9.50
2022-11-06T15:35:34.648Z,9.30
2022-11-06T15:40:40.207Z,9.10
2022-11-06T15:45:43.592Z,8.90
2022-11-06T15:50:48.845Z,8.70
2022-11-06T15:55:56.956Z,8.50
2022-11-06T16:01:01.522Z,8.30
2022-11-06T16:06:06.963Z,8.10
2022-11-06T16:11:15.389Z,8.00
2022-11-06T16:16:44.721Z,7.80
2022-11-06T16:21:53.083Z,7.70
2022-11-06T16:26:57.035Z,7.60
2022-11-06T16:32:02.167Z,7.50
2022-11-06T16:37:09.123Z,7.40
2022-11-06T16:42:30.381Z,7.30
2022-11-06T16:47:33.825Z,7.30
2022-11-06T16:52:39.912Z,7.20
2022-11-06T16:57:46.352Z,7.30
2022-11-06T17:02:51.403Z,7.30
2022-11-06T17:08:09.022Z,7.30
2022-11-06T17:13:18.219Z,7.30
2022-11-06T17:18:28.395Z,7.30
2022-11-06T17:23:34.547Z,7.30
2022-11-06T17:28:37.841Z,7.30
2022-11-06T17:33:41.366Z,7.30
2022-11-06T17:38:47.872Z,7.10
2022-11-06T17:43:51.241Z,7.10
2022-11-06T17:48:54.939Z,7.10
2022-11-06T17:54:00.401Z,7.00
2022-11-06T17:59:03.918Z,7.00
2022-11-06T18:04:08.151Z,7.00
2022-11-06T18:09:13.752Z,7.00
2022-11-06T18:14:17.521Z,7.00
2022-11-06T18:19:23.166Z,3.10
2022-11-06T18:24:27.852Z,7.10
2022-11-06T18:29:31.195Z,7.20
2022-11-06T18:34:34.680Z,7.20
2022-11-06T18:39:40.752Z,7.20
2022-11-06T18:44:44.185Z,7.20
2022-11-06T18:49:47.517Z,7.20
2022-11-06T18:54:55.667Z,7.20
2022-11-06T19:00:01.644Z,7.30
2022-11-06T19:05:05.303Z,6.20
2022-11-06T19:10:12.817Z,7.20
2022-11-06T19:15:16.119Z,7.20
2022-11-06T19:20:19.847Z,7.20
2022-11-06T19:25:25.417Z,7.10
2022-11-06T19:30:28.828Z,7.10
2022-11-06T19:35:33.547Z,7.10
2022-11-06T19:40:38.450Z,7.10
2022-11-06T19:45:41.985Z,7.20
2022-11-06T19:51:04.706Z,7.20
2022-11-06T19:56:12.665Z,7.20
2022-11-06T20:01:16.348Z,7.30
2022-11-06T20:06:20.024Z,7.10
2022-11-06T20:11:24.819Z,7.00
2022-11-06T20:16:28.647Z,6.90
2022-11-06T20:21:32.037Z,6.80
2022-11-06T20:26:36.939Z,6.70
2022-11-06T20:31:40.341Z,6.70
2022-11-06T20:36:44.083Z,6.70
2022-11-06T20:41:49.135Z,7.00
2022-11-06T20:46:52.888Z,7.00
2022-11-06T20:52:13.206Z,6.80
2022-11-06T20:57:19.005Z,6.90
2022-11-06T21:02:22.559Z,7.00
2022-11-06T21:07:26.118Z,6.80
2022-11-06T21:12:30.799Z,6.80
2022-11-06T21:17:35.297Z,6.90
2022-11-06T21:22:38.738Z,7.00
2022-11-06T21:27:43.480Z,6.90
2022-11-06T21:32:46.803Z,6.80
2022-11-06T21:37:50.071Z,6.80
2022-11-06T21:42:54.786Z,6.80
2022-11-06T21:47:58.046Z,6.70
2022-11-06T21:53:18.892Z,6.70
2022-11-06T21:58:23.842Z,6.70
2022-11-06T22:03:27.180Z,6.70
2022-11-06T22:08:30.755Z,6.70
2022-11-06T22:13:35.482Z,6.60
2022-11-06T22:18:39.586Z,6.80
2022-11-06T22:23:43.148Z,6.80
2022-11-06T22:28:47.852Z,6.60
2022-11-06T22:33:53.848Z,6.60
2022-11-06T22:38:59.764Z,6.70
2022-11-06T22:44:05.226Z,6.50
2022-11-06T22:49:08.695Z,6.60
2022-11-06T22:54:11.955Z,6.70
2022-11-06T22:59:16.625Z,6.70
2022-11-06T23:04:19.889Z,6.80
2022-11-06T23:09:23.167Z,6.90
2022-11-06T23:14:29.255Z,7.10
2022-11-06T23:19:33.316Z,7.00
2022-11-06T23:24:36.564Z,7.00
2022-11-06T23:29:41.398Z,7.10
2022-11-06T23:34:44.688Z,7.10
2022-11-06T23:39:48.113Z,7.20
2022-11-06T23:45:10.134Z,7.30
2022-11-06T23:50:13.434Z,7.30
2022-11-06T23:55:16.704Z,7.30
